Egmond aan Zee, Netherlands
Current Conditions -  °F | °C
As of 2:25 AM on Sunday 26 Oct 2014 (Local Time) from EHKD Reporting Station
Broken Clouds Broken Clouds  
Wind Chill: 57°   Ceiling: 4500
Heat Index: 57°   Visibility: 6mi
Dew Point: 50°   Wind: 13mph
Humidity: 77%   Direction: 240°WSW
Pressure: 30.12"   Gusts: NA
Location:  52.62°N, 4.63°E
Report Text: EHKD 260025Z AUTO 24011KT 9999 FEW024 BKN045 14/10 Q1020 BLU
Loading
Personal Weather Stations






























Interactive Weather Map
Tropical Storm Tracking
New forecast layout! Learn more

10-Day Weather Forecast

Advertisements
Track Severe Weather on mobile